Time;durP1;ratioP1;P1;durP2;ratioP2;P2;SDS_P1;SDS_P2;PMS_P1;PMS_P2;Temp;Humidity;BMP_temperature;BMP_pressure;BME280_temperature;BME280_humidity;BME280_pressure;Samples;Min_cycle;Max_cycle;Signal;HPM_P1;HPM_P2
2022/02/01 00:00:30;;;;;;;2.60;1.50;;;5.90;85.50;;;;;;4979399;28;20566;-47
2022/02/01 00:03:01;;;;;;;3.17;1.80;;;5.90;85.60;;;;;;4981871;28;20536;-47
2022/02/01 00:05:41;;;;;;;3.83;2.00;;;5.90;86.00;;;;;;4972493;28;20458;-46
2022/02/01 00:10:54;;;;;;;4.17;1.77;;;5.90;85.60;;;;;;4973935;28;20494;-47
2022/02/01 00:13:50;;;;;;;4.93;2.20;;;5.90;85.40;;;;;;4979987;28;20481;-47
2022/02/01 00:40:25;;;;;;;11.10;3.47;;;5.50;84.60;;;;;;4979533;28;20461;-46
2022/02/01 00:42:52;;;;;;;9.33;4.17;;;5.50;83.90;;;;;;4980827;28;20473;-47
2022/02/01 00:45:19;;;;;;;10.33;3.80;;;5.50;83.90;;;;;;4978263;28;21358;-47
2022/02/01 00:47:46;;;;;;;10.57;4.10;;;5.50;84.10;;;;;;4978230;28;20990;-48
2022/02/01 00:50:15;;;;;;;11.13;4.17;;;5.50;83.20;;;;;;4978673;28;20861;-47
2022/02/01 00:52:42;;;;;;;13.03;4.13;;;5.40;83.30;;;;;;4976682;28;20455;-47
2022/02/01 00:55:10;;;;;;;14.13;4.13;;;5.40;83.50;;;;;;4977908;28;20509;-47
2022/02/01 00:57:38;;;;;;;8.40;4.33;;;5.40;83.30;;;;;;4981719;28;20464;-47
2022/02/01 01:00:08;;;;;;;12.27;3.93;;;5.40;82.80;;;;;;4976801;28;20455;-47
2022/02/01 01:02:35;;;;;;;12.97;4.23;;;5.40;82.80;;;;;;4979920;28;20853;-47
2022/02/01 01:05:05;;;;;;;11.40;4.73;;;5.40;82.60;;;;;;4976822;28;20465;-47
2022/02/01 01:07:32;;;;;;;14.20;4.50;;;5.40;82.70;;;;;;4971933;28;20969;-47
2022/02/01 01:10:01;;;;;;;9.20;3.50;;;5.30;82.20;;;;;;4981154;28;20490;-47
2022/02/01 01:12:30;;;;;;;14.00;5.07;;;5.30;82.50;;;;;;4981190;28;21068;-47
2022/02/01 01:44:56;;;;;;;14.33;4.50;;;5.20;82.30;;;;;;4979528;28;20462;-47
2022/02/01 01:55:25;;;;;;;13.20;3.73;;;5.20;81.60;;;;;;4984138;28;20490;-47
2022/02/01 01:57:52;;;;;;;15.40;4.57;;;5.20;80.50;;;;;;4990232;28;20468;-47
2022/02/01 02:00:40;;;;;;;12.10;4.30;;;5.20;80.30;;;;;;4980386;28;20465;-48
2022/02/01 02:03:07;;;;;;;8.23;3.80;;;5.20;80.30;;;;;;4981674;28;20834;-47
2022/02/01 02:05:34;;;;;;;10.60;4.13;;;5.20;79.30;;;;;;4982979;28;20841;-47
2022/02/01 02:08:02;;;;;;;16.80;4.60;;;5.20;78.80;;;;;;4983728;28;20465;-48
2022/02/01 02:10:34;;;;;;;10.83;3.67;;;5.20;78.80;;;;;;4990676;28;20489;-48
2022/02/01 02:15:58;;;;;;;12.07;3.87;;;5.10;78.30;;;;;;4978899;28;23697;-47
2022/02/01 02:18:26;;;;;;;15.43;4.23;;;5.10;78.10;;;;;;4980458;28;20970;-47
2022/02/01 02:20:55;;;;;;;11.40;4.70;;;5.10;78.10;;;;;;4992089;28;21092;-46
2022/02/01 02:23:22;;;;;;;13.37;4.00;;;5.10;78.30;;;;;;4983691;28;20485;-46
2022/02/01 02:25:50;;;;;;;13.03;4.47;;;5.10;78.70;;;;;;4978262;28;20465;-47
2022/02/01 02:28:18;;;;;;;13.07;3.13;;;5.10;79.10;;;;;;4983844;28;20468;-47
2022/02/01 02:30:48;;;;;;;22.27;4.27;;;5.20;78.00;;;;;;4989111;28;20505;-47
2022/02/01 02:33:17;;;;;;;14.40;4.17;;;5.10;78.10;;;;;;4980571;28;20468;-47
2022/02/01 02:35:53;;;;;;;15.00;4.80;;;5.10;78.40;;;;;;4970842;28;20847;-47
2022/02/01 02:38:30;;;;;;;12.70;4.43;;;5.10;78.50;;;;;;4980532;28;20592;-48
2022/02/01 02:46:29;;;;;;;9.17;3.50;;;5.10;77.40;;;;;;4962522;28;20895;-48
2022/02/01 02:48:56;;;;;;;9.43;3.37;;;5.10;77.50;;;;;;4981768;28;20461;-48
2022/02/01 02:51:23;;;;;;;10.83;4.20;;;5.10;77.80;;;;;;4978606;28;20485;-47
2022/02/01 02:53:49;;;;;;;14.90;4.73;;;5.00;77.80;;;;;;4977724;28;21088;-46
2022/02/01 02:56:16;;;;;;;6.20;3.33;;;5.00;77.30;;;;;;4979268;28;20465;-47
2022/02/01 02:58:43;;;;;;;17.43;4.93;;;5.00;77.20;;;;;;5003174;28;20465;-47
2022/02/01 03:01:10;;;;;;;11.97;3.40;;;5.00;77.40;;;;;;4981782;28;20480;-47
2022/02/01 03:03:37;;;;;;;11.67;3.57;;;5.00;77.10;;;;;;4977786;28;20473;-47
2022/02/01 03:06:08;;;;;;;10.67;3.70;;;5.00;76.70;;;;;;4979543;28;20471;-48
2022/02/01 03:08:35;;;;;;;9.27;4.60;;;5.00;76.60;;;;;;4981722;28;20477;-48
2022/02/01 03:11:05;;;;;;;10.80;4.27;;;4.90;76.70;;;;;;4979564;28;20489;-47
2022/02/01 03:13:34;;;;;;;8.07;3.30;;;4.90;76.90;;;;;;4978523;28;20825;-48
2022/02/01 03:16:11;;;;;;;9.00;4.20;;;4.90;76.80;;;;;;4981451;28;20506;-48
2022/02/01 03:21:23;;;;;;;10.03;3.73;;;4.90;76.80;;;;;;4979078;28;20491;-48
2022/02/01 03:23:50;;;;;;;17.60;4.07;;;4.90;76.90;;;;;;4987419;28;20489;-50
2022/02/01 03:26:17;;;;;;;18.20;4.53;;;4.80;76.70;;;;;;4988699;28;20457;-50
2022/02/01 03:28:43;;;;;;;11.90;3.60;;;4.80;76.60;;;;;;4999203;28;21205;-50
2022/02/01 03:31:10;;;;;;;8.73;3.63;;;4.80;76.90;;;;;;4995213;28;20485;-50
2022/02/01 03:33:37;;;;;;;8.30;2.93;;;4.80;76.70;;;;;;4994228;28;20466;-50
2022/02/01 03:36:04;;;;;;;14.60;4.80;;;4.80;75.90;;;;;;4994267;28;20460;-49
2022/02/01 03:38:31;;;;;;;7.50;3.10;;;4.70;76.10;;;;;;4991155;28;20470;-49
2022/02/01 03:40:58;;;;;;;15.07;3.90;;;4.80;76.50;;;;;;4995567;28;21029;-50
2022/02/01 03:43:24;;;;;;;14.10;3.40;;;4.70;76.40;;;;;;4999423;28;20556;-50
2022/02/01 03:45:51;;;;;;;12.93;3.13;;;4.70;76.50;;;;;;4996074;28;20466;-50
2022/02/01 03:48:18;;;;;;;11.20;4.80;;;4.80;77.10;;;;;;4997628;28;20474;-49
2022/02/01 03:50:44;;;;;;;9.33;3.50;;;4.80;76.80;;;;;;4997327;28;20488;-49
2022/02/01 03:53:12;;;;;;;12.80;3.90;;;4.80;76.70;;;;;;4998417;28;20441;-50
2022/02/01 03:55:40;;;;;;;10.13;3.17;;;4.80;77.30;;;;;;4990321;28;20472;-50
2022/02/01 03:58:07;;;;;;;7.90;3.07;;;4.80;77.00;;;;;;4991706;28;20557;-51
2022/02/01 04:00:33;;;;;;;4.60;2.90;;;4.80;77.40;;;;;;4994876;28;20453;-50
2022/02/01 04:03:03;;;;;;;13.13;3.60;;;4.70;77.80;;;;;;4994078;28;20465;-49
2022/02/01 04:05:32;;;;;;;15.77;3.33;;;4.80;78.00;;;;;;4994405;28;20525;-51
2022/02/01 04:07:59;;;;;;;16.00;3.87;;;4.80;78.30;;;;;;4997766;28;20484;-50
2022/02/01 04:10:26;;;;;;;12.77;3.20;;;4.80;78.30;;;;;;4993362;28;20489;-50
2022/02/01 04:12:53;;;;;;;7.17;2.63;;;4.80;78.50;;;;;;4995923;28;20495;-50
2022/02/01 04:15:22;;;;;;;13.03;2.63;;;4.90;78.40;;;;;;4996732;28;20483;-50
2022/02/01 04:17:49;;;;;;;6.50;2.20;;;4.90;78.40;;;;;;4995242;28;20461;-50
2022/02/01 04:20:16;;;;;;;13.57;3.50;;;4.90;78.50;;;;;;4994709;28;20441;-49
2022/02/01 04:22:43;;;;;;;8.63;3.90;;;4.90;78.30;;;;;;4998463;28;21004;-50
2022/02/01 04:25:10;;;;;;;7.43;2.47;;;4.90;78.40;;;;;;4996094;28;20542;-50
2022/02/01 04:27:38;;;;;;;12.53;2.90;;;5.00;78.10;;;;;;4998233;28;20476;-50
2022/02/01 04:30:07;;;;;;;7.87;2.30;;;5.00;77.20;;;;;;4996280;28;20466;-50
2022/02/01 04:32:52;;;;;;;10.67;2.80;;;5.00;77.50;;;;;;4991612;28;20489;-50
2022/02/01 04:35:21;;;;;;;8.57;2.67;;;5.00;77.80;;;;;;4996725;28;20548;-50
2022/02/01 04:37:53;;;;;;;9.90;2.87;;;5.00;76.80;;;;;;4992433;28;20465;-50
2022/02/01 04:40:21;;;;;;;10.60;3.30;;;5.00;77.50;;;;;;5022869;28;20468;-50
2022/02/01 04:42:50;;;;;;;10.30;2.97;;;5.00;77.80;;;;;;4994116;28;20529;-50
2022/02/01 04:45:21;;;;;;;5.70;2.13;;;5.00;77.60;;;;;;4996067;28;20930;-49
2022/02/01 04:47:49;;;;;;;8.93;2.23;;;5.00;77.70;;;;;;4986028;28;20541;-51
2022/02/01 04:50:23;;;;;;;5.10;2.13;;;5.00;77.50;;;;;;4996496;28;20469;-50
2022/02/01 04:52:53;;;;;;;6.33;2.53;;;5.00;77.60;;;;;;5004508;28;20515;-51
2022/02/01 04:55:21;;;;;;;14.30;3.13;;;5.00;77.40;;;;;;4995059;28;20476;-51
2022/02/01 04:57:55;;;;;;;7.30;2.10;;;5.00;77.70;;;;;;4994025;28;20461;-50
2022/02/01 05:00:28;;;;;;;7.50;3.20;;;5.00;77.60;;;;;;5000830;28;20456;-50
2022/02/01 05:02:57;;;;;;;10.30;2.17;;;5.00;77.50;;;;;;4991162;28;20461;-50
2022/02/01 05:05:31;;;;;;;8.07;2.53;;;5.00;76.80;;;;;;4994577;28;20879;-51
2022/02/01 05:08:03;;;;;;;9.00;2.03;;;5.00;77.10;;;;;;4996307;28;20468;-51
2022/02/01 05:10:32;;;;;;;11.00;3.10;;;5.00;76.90;;;;;;4996107;28;20458;-50
2022/02/01 05:15:52;;;;;;;13.23;2.23;;;4.90;76.40;;;;;;5000345;28;20461;-50
2022/02/01 05:18:24;;;;;;;9.00;2.40;;;4.90;76.30;;;;;;4997602;28;20460;-50
2022/02/01 05:20:56;;;;;;;7.30;2.70;;;4.90;76.80;;;;;;4995128;28;20529;-50
2022/02/01 05:23:24;;;;;;;6.53;2.40;;;4.90;76.70;;;;;;5025640;28;20564;-50
2022/02/01 05:25:51;;;;;;;11.57;2.50;;;4.90;76.80;;;;;;4998795;28;20500;-48
2022/02/01 05:28:18;;;;;;;10.30;1.90;;;4.90;76.00;;;;;;4999644;28;20474;-49
2022/02/01 05:30:45;;;;;;;14.03;4.07;;;4.90;75.80;;;;;;4998576;28;20504;-51
2022/02/01 05:33:12;;;;;;;4.00;1.90;;;4.90;76.00;;;;;;4995767;28;20456;-50
2022/02/01 05:35:39;;;;;;;15.77;2.33;;;4.90;75.40;;;;;;4997610;28;20484;-50
2022/02/01 05:38:06;;;;;;;8.53;2.97;;;4.90;75.90;;;;;;4998699;28;20514;-49
2022/02/01 05:40:32;;;;;;;2.37;1.60;;;4.90;76.30;;;;;;4998925;28;20481;-49
2022/02/01 05:43:06;;;;;;;5.97;2.00;;;4.90;75.80;;;;;;4996480;28;20485;-51
2022/02/01 05:45:33;;;;;;;9.27;1.87;;;4.90;75.60;;;;;;4997403;28;20461;-50
2022/02/01 05:48:02;;;;;;;11.00;1.67;;;4.90;76.40;;;;;;4995898;28;20518;-50
2022/02/01 05:50:33;;;;;;;6.03;2.87;;;4.90;76.10;;;;;;4974803;28;20461;-48
2022/02/01 05:53:00;;;;;;;5.33;1.77;;;4.90;75.10;;;;;;4980860;28;21005;-48
2022/02/01 05:55:27;;;;;;;7.30;1.80;;;4.90;75.60;;;;;;4977021;28;20465;-47
2022/02/01 05:57:54;;;;;;;8.77;1.77;;;4.80;75.60;;;;;;5011216;28;20952;-47
2022/02/01 06:00:21;;;;;;;12.73;1.87;;;4.80;75.50;;;;;;4974962;28;20483;-47
2022/02/01 06:02:50;;;;;;;9.03;2.37;;;4.80;75.60;;;;;;4981924;28;20466;-47
2022/02/01 06:05:18;;;;;;;4.80;1.53;;;4.90;75.40;;;;;;4981551;28;20473;-48
2022/02/01 06:07:45;;;;;;;7.03;1.90;;;4.90;75.50;;;;;;4978009;28;20477;-48
2022/02/01 06:10:12;;;;;;;8.47;1.90;;;4.90;75.50;;;;;;4981538;28;20468;-48
2022/02/01 06:12:47;;;;;;;10.70;2.83;;;4.90;75.50;;;;;;4981789;28;21080;-47
2022/02/01 06:15:17;;;;;;;4.20;1.63;;;4.80;75.30;;;;;;4979077;28;20941;-48
2022/02/01 06:17:44;;;;;;;6.93;2.40;;;4.80;75.40;;;;;;4980462;28;20465;-48
2022/02/01 06:20:13;;;;;;;4.03;2.00;;;4.80;75.90;;;;;;4979739;28;21297;-48
2022/02/01 06:22:39;;;;;;;5.07;2.83;;;4.80;75.80;;;;;;4980797;28;20521;-47
2022/02/01 06:25:09;;;;;;;8.90;2.20;;;4.70;76.20;;;;;;4991748;28;20536;-48
2022/02/01 06:27:36;;;;;;;4.77;1.87;;;4.70;76.20;;;;;;4978539;28;20564;-47
2022/02/01 06:30:08;;;;;;;7.17;2.03;;;4.70;75.70;;;;;;4982725;28;20477;-47
2022/02/01 06:32:38;;;;;;;9.70;2.33;;;4.70;76.30;;;;;;4974130;28;20568;-48
2022/02/01 06:35:07;;;;;;;5.47;1.67;;;4.70;76.30;;;;;;4978481;28;20457;-48
2022/02/01 06:37:34;;;;;;;3.33;1.67;;;4.70;76.30;;;;;;4979953;28;20468;-49
2022/02/01 06:40:02;;;;;;;6.90;2.20;;;4.80;76.60;;;;;;4978740;28;20465;-49
2022/02/01 06:42:29;;;;;;;2.60;1.50;;;4.70;76.50;;;;;;4975919;28;20910;-48
2022/02/01 06:44:56;;;;;;;5.00;1.90;;;4.70;76.60;;;;;;4985044;28;20487;-48
2022/02/01 06:47:22;;;;;;;5.03;2.00;;;4.80;76.70;;;;;;4975056;28;20461;-48
2022/02/01 06:49:49;;;;;;;8.43;2.20;;;4.80;76.60;;;;;;4976210;28;20473;-48
2022/02/01 06:52:16;;;;;;;5.67;2.07;;;4.80;76.90;;;;;;5006792;28;20623;-48
2022/02/01 06:54:43;;;;;;;9.47;2.33;;;4.80;76.70;;;;;;4978718;28;20462;-48
2022/02/01 06:57:09;;;;;;;9.70;3.10;;;4.80;76.80;;;;;;4980040;28;20456;-47
2022/02/01 06:59:36;;;;;;;10.40;3.20;;;4.80;76.40;;;;;;4980687;28;20461;-47
2022/02/01 07:02:03;;;;;;;7.43;2.33;;;4.80;76.70;;;;;;4976755;28;20473;-49
2022/02/01 07:04:32;;;;;;;5.70;2.77;;;4.80;76.60;;;;;;4979826;28;20466;-49
2022/02/01 07:07:01;;;;;;;4.57;2.60;;;4.80;76.80;;;;;;4978215;28;20543;-47
2022/02/01 07:09:31;;;;;;;10.10;2.50;;;4.80;77.20;;;;;;4984490;28;20449;-48
2022/02/01 07:11:59;;;;;;;7.30;1.97;;;4.80;77.40;;;;;;4979174;28;20990;-48
2022/02/01 07:14:25;;;;;;;7.57;2.40;;;4.80;77.30;;;;;;4981374;28;20979;-47
2022/02/01 07:16:52;;;;;;;2.83;1.60;;;4.80;77.60;;;;;;4974372;28;21022;-47
2022/02/01 07:19:19;;;;;;;3.30;1.30;;;4.80;78.60;;;;;;4977166;28;20464;-48
2022/02/01 07:21:46;;;;;;;5.00;2.23;;;4.70;79.30;;;;;;4978446;28;20944;-48
2022/02/01 07:24:16;;;;;;;4.00;1.57;;;4.70;79.90;;;;;;4976528;28;20485;-48
2022/02/01 07:26:54;;;;;;;2.27;1.70;;;4.70;80.30;;;;;;4984652;28;20471;-48
2022/02/01 07:29:20;;;;;;;4.70;1.90;;;4.70;80.70;;;;;;4979212;28;20464;-49
2022/02/01 07:31:48;;;;;;;9.03;2.27;;;4.70;81.10;;;;;;4991962;28;20511;-48
2022/02/01 07:34:15;;;;;;;13.50;2.80;;;4.70;81.00;;;;;;4980131;28;20457;-48
2022/02/01 07:36:43;;;;;;;2.87;1.73;;;4.70;81.20;;;;;;4982156;28;20458;-48
2022/02/01 07:39:10;;;;;;;7.20;1.83;;;4.70;81.20;;;;;;4978871;28;20442;-47
2022/02/01 07:41:38;;;;;;;8.13;1.80;;;4.70;81.40;;;;;;4973987;28;20528;-47
2022/02/01 07:44:05;;;;;;;6.00;2.00;;;4.70;81.30;;;;;;4977694;28;20469;-48
2022/02/01 07:46:33;;;;;;;9.00;2.47;;;4.70;80.90;;;;;;4976656;28;20889;-49
2022/02/01 07:49:00;;;;;;;9.43;2.30;;;4.70;80.90;;;;;;4978734;28;20473;-48
2022/02/01 07:51:27;;;;;;;4.73;2.30;;;4.70;81.00;;;;;;4979771;28;20568;-47
2022/02/01 07:53:53;;;;;;;7.57;1.73;;;4.70;81.00;;;;;;4978018;28;20455;-48
2022/02/01 07:56:20;;;;;;;5.47;1.63;;;4.70;80.80;;;;;;4977330;28;20472;-47
2022/02/01 07:58:47;;;;;;;7.47;2.03;;;4.70;80.90;;;;;;4980760;28;21009;-47
2022/02/01 08:01:13;;;;;;;5.63;2.13;;;4.70;81.00;;;;;;4977191;28;20543;-48
2022/02/01 08:03:42;;;;;;;2.90;1.80;;;4.70;80.90;;;;;;4966023;28;20991;-47
2022/02/01 08:06:09;;;;;;;4.00;2.30;;;4.80;80.90;;;;;;5013037;28;20460;-48
2022/02/01 08:08:36;;;;;;;6.03;2.80;;;4.80;80.70;;;;;;4975358;28;20967;-48
2022/02/01 08:11:08;;;;;;;4.50;2.33;;;4.80;81.00;;;;;;5008974;28;20987;-48
2022/02/01 08:19:07;;;;;;;2.47;2.27;;;4.80;80.90;;;;;;4974735;28;20528;-48
2022/02/01 08:21:52;;;;;;;5.13;2.43;;;4.80;80.40;;;;;;4999116;28;20472;-47
2022/02/01 08:24:19;;;;;;;7.73;2.63;;;4.80;80.30;;;;;;4975684;28;20480;-47
2022/02/01 08:26:47;;;;;;;4.37;1.83;;;4.90;80.40;;;;;;4977795;28;20903;-48
2022/02/01 08:29:15;;;;;;;2.93;2.03;;;4.90;80.30;;;;;;4981450;28;20464;-48
2022/02/01 08:31:46;;;;;;;3.47;2.20;;;4.90;80.40;;;;;;4973780;28;20583;-48
2022/02/01 08:34:14;;;;;;;7.17;2.60;;;4.90;80.10;;;;;;4978540;28;20457;-48
2022/02/01 08:36:41;;;;;;;4.93;3.17;;;5.00;79.20;;;;;;4977577;28;20468;-48
2022/02/01 08:39:08;;;;;;;4.80;2.23;;;4.90;79.70;;;;;;4979781;28;21494;-47
2022/02/01 08:41:35;;;;;;;8.40;4.33;;;4.90;79.10;;;;;;5003133;28;20537;-47
2022/02/01 08:44:03;;;;;;;12.33;5.80;;;4.90;78.90;;;;;;4980487;28;20470;-48
2022/02/01 08:46:30;;;;;;;5.83;2.87;;;4.90;79.10;;;;;;4975457;28;20464;-48
2022/02/01 08:48:56;;;;;;;5.53;2.67;;;5.00;78.80;;;;;;4983502;28;20555;-48
2022/02/01 08:51:25;;;;;;;7.00;2.83;;;5.00;78.60;;;;;;4983084;28;20475;-48
2022/02/01 08:53:57;;;;;;;6.07;3.40;;;5.00;78.60;;;;;;4994326;28;21029;-47
2022/02/01 08:59:26;;;;;;;5.23;1.63;;;5.00;78.30;;;;;;4983984;28;21219;-48
2022/02/01 09:01:54;;;;;;;3.13;1.80;;;5.00;78.20;;;;;;4983196;28;20464;-48
2022/02/01 09:04:22;;;;;;;5.43;2.10;;;5.00;78.30;;;;;;4982390;28;20477;-49
2022/02/01 09:06:49;;;;;;;9.67;2.43;;;5.10;78.10;;;;;;4981745;28;20495;-48
2022/02/01 09:09:16;;;;;;;4.33;1.90;;;5.10;77.60;;;;;;4982472;28;20457;-47
2022/02/01 09:11:42;;;;;;;4.40;2.57;;;5.10;77.20;;;;;;4980134;28;20488;-48
2022/02/01 09:14:10;;;;;;;7.23;2.07;;;5.10;77.00;;;;;;4982278;28;20464;-48
2022/02/01 09:16:37;;;;;;;4.83;2.07;;;5.10;77.20;;;;;;4972360;28;21081;-48
2022/02/01 09:19:03;;;;;;;3.90;1.63;;;5.10;77.30;;;;;;4979088;28;20457;-48
2022/02/01 09:21:30;;;;;;;5.30;2.27;;;5.10;77.10;;;;;;4973470;28;20962;-48
2022/02/01 09:23:57;;;;;;;5.10;3.67;;;5.10;76.80;;;;;;5009596;28;21010;-48
2022/02/01 09:26:24;;;;;;;5.20;2.20;;;5.20;76.00;;;;;;4980585;28;20461;-48
2022/02/01 09:29:11;;;;;;;3.97;1.97;;;5.20;76.50;;;;;;4980951;28;20488;-47
2022/02/01 09:31:38;;;;;;;3.97;1.93;;;5.20;76.10;;;;;;5005074;28;20462;-47
2022/02/01 09:34:07;;;;;;;8.73;2.83;;;5.30;76.10;;;;;;4978641;28;20452;-48
2022/02/01 09:36:34;;;;;;;13.20;2.83;;;5.30;76.20;;;;;;4979240;28;20488;-48
2022/02/01 09:39:01;;;;;;;4.83;2.07;;;5.40;75.90;;;;;;4973156;28;20966;-48
2022/02/01 09:41:29;;;;;;;5.77;3.33;;;5.40;75.80;;;;;;4977943;28;20856;-47
2022/02/01 09:43:56;;;;;;;13.70;3.53;;;5.40;76.10;;;;;;4977836;28;20465;-48
2022/02/01 09:46:25;;;;;;;6.80;3.20;;;5.40;75.50;;;;;;4975947;28;21150;-47
2022/02/01 09:48:52;;;;;;;4.70;2.90;;;5.40;75.20;;;;;;4979047;28;20552;-47
2022/02/01 09:51:19;;;;;;;8.43;2.10;;;5.40;75.10;;;;;;4979612;28;20557;-48
2022/02/01 09:54:05;;;;;;;9.50;3.30;;;5.40;75.10;;;;;;4987140;28;20882;-48
2022/02/01 09:56:32;;;;;;;9.23;2.53;;;5.40;74.90;;;;;;4976738;28;20505;-48
2022/02/01 09:58:59;;;;;;;4.20;1.70;;;5.40;75.10;;;;;;4979122;28;20978;-48
2022/02/01 10:01:30;;;;;;;3.30;2.07;;;5.40;75.00;;;;;;4977564;28;20480;-47
2022/02/01 10:04:07;;;;;;;2.93;2.70;;;5.40;74.50;;;;;;4985462;28;20595;-48
2022/02/01 10:06:41;;;;;;;4.00;2.40;;;5.40;74.50;;;;;;4975292;28;20468;-48
2022/02/01 10:09:27;;;;;;;9.40;2.10;;;5.50;74.50;;;;;;4976357;28;20449;-48
2022/02/01 10:11:54;;;;;;;5.60;2.07;;;5.40;76.30;;;;;;4981966;28;20461;-48
2022/02/01 10:14:25;;;;;;;7.03;2.17;;;5.40;77.30;;;;;;5010182;28;20512;-48
2022/02/01 10:16:55;;;;;;;3.97;2.20;;;5.40;77.50;;;;;;4979766;28;20469;-48
2022/02/01 10:19:22;;;;;;;10.53;3.27;;;5.40;79.10;;;;;;4978363;28;20477;-49
2022/02/01 10:22:02;;;;;;;7.27;2.60;;;5.30;80.00;;;;;;4975685;28;20842;-48
2022/02/01 10:24:35;;;;;;;7.73;2.67;;;5.30;79.90;;;;;;5000613;28;20465;-48
2022/02/01 10:27:13;;;;;;;7.50;3.07;;;5.20;80.90;;;;;;5009193;28;20473;-47
2022/02/01 10:29:50;;;;;;;5.23;2.30;;;5.20;81.50;;;;;;4991268;28;20457;-48
2022/02/01 10:32:31;;;;;;;6.23;2.30;;;5.20;82.10;;;;;;4975283;28;20489;-47
2022/02/01 10:38:01;;;;;;;4.97;3.03;;;5.20;83.30;;;;;;4971696;28;20811;-48
2022/02/01 10:40:42;;;;;;;4.70;2.63;;;5.20;82.80;;;;;;4975825;28;20464;-48
2022/02/01 10:43:27;;;;;;;6.00;4.30;;;5.10;83.50;;;;;;4975693;28;20481;-48
2022/02/01 10:46:04;;;;;;;7.10;2.97;;;5.10;83.70;;;;;;4977785;28;20469;-48
2022/02/01 10:48:32;;;;;;;6.70;3.07;;;5.10;84.30;;;;;;4989144;28;21046;-47
2022/02/01 10:51:13;;;;;;;5.33;2.67;;;5.10;84.40;;;;;;4977288;28;20966;-48
2022/02/01 10:53:41;;;;;;;7.57;2.40;;;5.10;84.40;;;;;;4980655;28;20484;-47
2022/02/01 10:56:11;;;;;;;6.63;3.57;;;5.10;84.80;;;;;;4992047;28;20477;-48
2022/02/01 10:58:38;;;;;;;3.73;2.60;;;5.10;85.00;;;;;;4979796;28;20461;-48
2022/02/01 11:01:06;;;;;;;4.40;2.40;;;5.10;84.30;;;;;;4973183;28;20457;-47
2022/02/01 11:03:39;;;;;;;5.40;2.37;;;5.10;85.00;;;;;;4974947;28;20457;-48
2022/02/01 11:06:06;;;;;;;3.53;1.97;;;5.00;84.70;;;;;;4978355;28;20461;-48
2022/02/01 11:08:39;;;;;;;3.77;2.90;;;5.00;84.10;;;;;;4979437;28;21029;-49
2022/02/01 11:11:06;;;;;;;5.97;2.40;;;5.00;83.70;;;;;;4980141;28;20472;-48
2022/02/01 11:13:41;;;;;;;4.10;2.60;;;5.00;84.30;;;;;;4972179;28;20497;-47
2022/02/01 11:16:13;;;;;;;5.70;2.37;;;4.90;84.60;;;;;;4971850;28;20469;-46
2022/02/01 11:18:51;;;;;;;5.50;2.40;;;4.90;85.00;;;;;;4971108;28;20468;-47
2022/02/01 11:21:19;;;;;;;9.03;3.80;;;5.00;84.80;;;;;;4976069;28;20830;-47
2022/02/01 11:26:40;;;;;;;4.33;2.20;;;5.00;83.30;;;;;;4975729;28;20963;-47
2022/02/01 11:31:54;;;;;;;5.63;2.50;;;5.00;83.50;;;;;;4980638;28;20865;-47
2022/02/01 11:34:31;;;;;;;6.80;2.20;;;5.00;84.20;;;;;;4965103;28;20500;-47
2022/02/01 11:37:03;;;;;;;3.67;2.00;;;5.00;83.90;;;;;;4980325;28;20471;-48
2022/02/01 11:39:31;;;;;;;5.70;2.37;;;5.00;83.50;;;;;;4971460;28;20492;-47
2022/02/01 11:42:00;;;;;;;2.97;2.30;;;5.00;83.70;;;;;;4978433;28;20454;-47
2022/02/01 11:44:45;;;;;;;5.47;2.53;;;5.10;82.80;;;;;;4969053;28;21914;-47
2022/02/01 11:47:15;;;;;;;5.77;2.50;;;5.10;82.90;;;;;;4978571;28;20461;-48
2022/02/01 11:49:58;;;;;;;7.10;2.47;;;5.10;82.80;;;;;;4979350;28;20465;-48
2022/02/01 11:52:27;;;;;;;2.00;1.73;;;5.20;82.90;;;;;;4991680;28;20482;-46
2022/02/01 11:55:05;;;;;;;3.50;2.20;;;5.20;82.30;;;;;;4978456;28;20505;-48
2022/02/01 11:57:53;;;;;;;7.80;2.03;;;5.20;82.60;;;;;;4994594;28;20460;-48
2022/02/01 12:00:26;;;;;;;5.23;2.47;;;5.30;82.50;;;;;;4979372;28;20837;-48
2022/02/01 12:03:01;;;;;;;4.20;2.57;;;5.40;81.50;;;;;;4976352;28;20489;-47
2022/02/01 12:05:34;;;;;;;5.00;2.57;;;5.30;81.30;;;;;;4980227;28;20470;-48
2022/02/01 12:08:15;;;;;;;2.37;2.00;;;5.40;81.10;;;;;;4976176;28;20457;-47
2022/02/01 12:10:52;;;;;;;2.83;2.00;;;5.30;81.80;;;;;;4974662;28;20462;-48
2022/02/01 12:13:22;;;;;;;7.10;2.63;;;5.30;81.80;;;;;;4975010;28;20500;-48
2022/02/01 12:15:54;;;;;;;2.40;1.80;;;5.40;82.00;;;;;;4973183;28;20467;-48
2022/02/01 12:18:31;;;;;;;2.27;2.07;;;5.40;81.50;;;;;;4974046;28;20457;-48
2022/02/01 12:21:25;;;;;;;2.60;2.20;;;5.30;82.20;;;;;;4974873;28;20508;-47
2022/02/01 12:23:53;;;;;;;1.60;1.40;;;5.40;82.70;;;;;;4976999;28;20569;-47
2022/02/01 12:26:35;;;;;;;4.83;1.90;;;5.30;82.30;;;;;;4977520;28;20825;-46
2022/02/01 12:29:05;;;;;;;1.43;1.33;;;5.40;82.60;;;;;;4973909;28;20977;-47
2022/02/01 12:31:37;;;;;;;1.40;1.30;;;5.30;82.60;;;;;;4978475;28;20471;-48
2022/02/01 12:34:06;;;;;;;2.10;1.90;;;5.30;83.90;;;;;;4971933;28;20517;-48
2022/02/01 12:36:37;;;;;;;1.73;1.63;;;5.30;84.00;;;;;;4977176;28;21117;-48
2022/02/01 12:39:14;;;;;;;2.50;2.30;;;5.40;84.30;;;;;;4971740;28;20462;-47
2022/02/01 12:41:54;;;;;;;2.80;2.00;;;5.40;84.00;;;;;;5003803;28;20468;-47
2022/02/01 12:46:56;;;;;;;1.90;1.80;;;5.40;84.90;;;;;;4977149;28;20465;-47
2022/02/01 12:49:39;;;;;;;2.27;1.87;;;5.40;84.20;;;;;;4979836;28;20520;-47
2022/02/01 12:52:17;;;;;;;1.93;1.70;;;5.40;85.10;;;;;;4975034;28;20815;-48
2022/02/01 12:55:04;;;;;;;1.33;1.23;;;5.40;85.60;;;;;;4978026;28;20568;-47
2022/02/01 12:57:33;;;;;;;2.70;1.67;;;5.40;85.60;;;;;;4986885;28;20465;-46
2022/02/01 13:00:14;;;;;;;1.50;1.40;;;5.40;85.90;;;;;;5005210;28;20468;-46
2022/02/01 13:02:43;;;;;;;1.53;1.43;;;5.30;85.90;;;;;;5012571;28;20476;-47
2022/02/01 13:05:14;;;;;;;2.07;1.47;;;5.20;86.40;;;;;;4980685;28;20884;-48
2022/02/01 13:20:04;;;;;;;1.37;1.27;;;5.30;88.30;;;;;;4976739;28;20461;-47
2022/02/01 13:21:23;;;;;;;1.40;1.30;;;5.30;87.80;;;;;;4975737;28;21049;-47
2022/02/01 13:23:58;;;;;;;1.87;1.67;;;5.30;87.70;;;;;;4973864;28;20811;-47
2022/02/01 13:26:31;;;;;;;4.60;1.10;;;5.20;88.30;;;;;;4984573;28;20487;-47
2022/02/01 13:29:13;;;;;;;0.80;0.80;;;5.20;88.60;;;;;;4972784;28;22221;-47
2022/02/01 13:31:46;;;;;;;1.40;1.30;;;5.20;88.00;;;;;;4964471;28;21004;-47
2022/02/01 13:34:14;;;;;;;1.20;1.10;;;5.20;88.50;;;;;;4995579;28;20532;-46
2022/02/01 13:36:44;;;;;;;2.03;1.60;;;5.20;88.70;;;;;;4981590;28;20559;-47
2022/02/01 13:39:24;;;;;;;1.30;1.20;;;5.10;88.90;;;;;;4983285;28;20568;-47
2022/02/01 13:41:56;;;;;;;2.10;1.43;;;5.20;89.00;;;;;;4966850;28;20872;-47
2022/02/01 13:45:00;;;;;;;1.57;1.47;;;5.10;88.90;;;;;;4980826;28;20461;-46
2022/02/01 13:47:37;;;;;;;1.30;1.20;;;5.10;89.30;;;;;;4981344;28;20550;-46
2022/02/01 13:50:27;;;;;;;1.27;1.17;;;5.10;89.60;;;;;;4979832;28;20886;-47
2022/02/01 13:52:59;;;;;;;1.47;1.37;;;5.10;89.30;;;;;;4980734;28;20499;-47
2022/02/01 13:55:28;;;;;;;1.20;1.20;;;5.10;89.00;;;;;;4988865;28;20863;-46
2022/02/01 13:58:10;;;;;;;1.30;1.20;;;5.10;89.00;;;;;;4979774;28;20465;-46
2022/02/01 14:00:40;;;;;;;1.23;1.13;;;5.10;89.00;;;;;;4980878;28;20504;-47
2022/02/01 14:03:39;;;;;;;1.47;1.37;;;5.10;89.00;;;;;;5006931;28;20982;-47
2022/02/01 14:06:06;;;;;;;1.50;1.40;;;5.10;89.30;;;;;;4980836;28;21262;-47
2022/02/01 14:08:50;;;;;;;1.17;1.07;;;5.10;88.40;;;;;;4975541;28;20560;-47
2022/02/01 14:34:46;;;;;;;1.27;1.17;;;5.00;88.30;;;;;;4982207;28;20583;-47
2022/02/01 14:37:17;;;;;;;2.53;1.50;;;5.00;88.00;;;;;;4982618;28;20469;-47
2022/02/01 14:45:17;;;;;;;1.50;1.40;;;5.10;87.80;;;;;;4982929;28;20899;-48
2022/02/01 14:47:44;;;;;;;1.20;1.17;;;5.10;87.90;;;;;;4979360;28;20461;-48
2022/02/01 14:50:11;;;;;;;1.13;1.13;;;5.10;87.50;;;;;;4978873;28;20467;-47
2022/02/01 14:52:38;;;;;;;2.17;0.97;;;5.10;87.50;;;;;;4982954;28;20461;-47
2022/02/01 14:55:11;;;;;;;1.10;1.10;;;5.20;87.50;;;;;;4984882;28;20497;-47
2022/02/01 15:06:48;;;;;;;1.40;1.30;;;5.30;87.80;;;;;;4977455;28;20460;-47
2022/02/01 15:11:59;;;;;;;0.80;0.70;;;5.40;87.60;;;;;;4981804;28;20468;-47
2022/02/01 15:14:26;;;;;;;1.10;0.90;;;5.40;87.40;;;;;;4991157;28;20489;-48
2022/02/01 15:16:52;;;;;;;0.90;0.50;;;5.50;87.70;;;;;;4976420;28;20462;-47
2022/02/01 15:19:19;;;;;;;1.83;0.60;;;5.50;87.60;;;;;;4982641;28;20543;-47
2022/02/01 15:21:48;;;;;;;0.50;0.50;;;5.60;87.60;;;;;;5000241;28;20469;-47
2022/02/01 15:24:36;;;;;;;0.60;0.60;;;5.60;87.50;;;;;;4980241;28;20458;-47
2022/02/01 15:27:04;;;;;;;0.60;0.50;;;5.70;87.70;;;;;;4980774;28;20561;-47
2022/02/01 15:29:32;;;;;;;0.80;0.53;;;5.70;88.00;;;;;;4973762;28;20857;-47
2022/02/01 15:31:59;;;;;;;2.33;2.10;;;5.70;88.10;;;;;;4977818;28;20484;-47
2022/02/01 15:34:40;;;;;;;0.70;0.70;;;5.70;88.00;;;;;;4984247;28;20486;-51
2022/02/01 15:37:08;;;;;;;2.60;0.50;;;5.70;88.20;;;;;;4986723;28;20460;-50
2022/02/01 15:58:45;;;;;;;1.77;1.67;;;6.00;86.40;;;;;;4992789;28;20478;-50
2022/02/01 16:01:29;;;;;;;1.47;1.00;;;6.10;86.40;;;;;;4994299;28;20536;-50